sensor_id;sensor_type;location;lat;lon;timestamp;temperature;humidity
69595;DHT22;56800;52.142;5.364;2023-07-13T00:00:48;18.40;64.40
69595;DHT22;56800;52.142;5.364;2023-07-13T00:03:14;18.40;64.50
69595;DHT22;56800;52.142;5.364;2023-07-13T00:05:42;18.40;64.60
69595;DHT22;56800;52.142;5.364;2023-07-13T00:08:09;18.40;64.70
69595;DHT22;56800;52.142;5.364;2023-07-13T00:10:41;18.30;64.80
69595;DHT22;56800;52.142;5.364;2023-07-13T00:13:08;18.30;64.90
69595;DHT22;56800;52.142;5.364;2023-07-13T00:15:36;18.30;64.90
69595;DHT22;56800;52.142;5.364;2023-07-13T00:18:02;18.30;64.90
69595;DHT22;56800;52.142;5.364;2023-07-13T00:20:29;18.30;65.00
69595;DHT22;56800;52.142;5.364;2023-07-13T00:22:56;18.30;65.10
69595;DHT22;56800;52.142;5.364;2023-07-13T00:25:24;18.30;65.10
69595;DHT22;56800;52.142;5.364;2023-07-13T00:27:52;18.30;65.10
69595;DHT22;56800;52.142;5.364;2023-07-13T00:30:19;18.20;65.00
69595;DHT22;56800;52.142;5.364;2023-07-13T00:32:46;18.20;65.00
69595;DHT22;56800;52.142;5.364;2023-07-13T00:35:14;18.20;65.00
69595;DHT22;56800;52.142;5.364;2023-07-13T00:37:41;18.10;65.00
69595;DHT22;56800;52.142;5.364;2023-07-13T00:40:13;18.10;65.00
69595;DHT22;56800;52.142;5.364;2023-07-13T00:42:41;18.10;65.00
69595;DHT22;56800;52.142;5.364;2023-07-13T00:47:56;18.10;65.20
69595;DHT22;56800;52.142;5.364;2023-07-13T00:50:26;18.00;65.00
69595;DHT22;56800;52.142;5.364;2023-07-13T00:52:54;18.00;65.00
69595;DHT22;56800;52.142;5.364;2023-07-13T00:55:22;18.00;65.10
69595;DHT22;56800;52.142;5.364;2023-07-13T00:57:49;17.90;65.10
69595;DHT22;56800;52.142;5.364;2023-07-13T01:00:16;17.90;65.20
69595;DHT22;56800;52.142;5.364;2023-07-13T01:02:45;17.90;65.30
69595;DHT22;56800;52.142;5.364;2023-07-13T01:05:16;17.80;65.30
69595;DHT22;56800;52.142;5.364;2023-07-13T01:07:44;17.80;65.40
69595;DHT22;56800;52.142;5.364;2023-07-13T01:10:13;17.70;65.40
69595;DHT22;56800;52.142;5.364;2023-07-13T01:12:40;17.70;65.40
69595;DHT22;56800;52.142;5.364;2023-07-13T01:18:00;17.60;65.70
69595;DHT22;56800;52.142;5.364;2023-07-13T01:20:27;17.60;65.60
69595;DHT22;56800;52.142;5.364;2023-07-13T01:22:54;17.60;65.70
69595;DHT22;56800;52.142;5.364;2023-07-13T01:25:21;17.50;65.80
69595;DHT22;56800;52.142;5.364;2023-07-13T01:27:48;17.50;65.90
69595;DHT22;56800;52.142;5.364;2023-07-13T01:30:15;17.50;65.90
69595;DHT22;56800;52.142;5.364;2023-07-13T01:32:41;17.50;66.00
69595;DHT22;56800;52.142;5.364;2023-07-13T01:35:08;17.40;66.00
69595;DHT22;56800;52.142;5.364;2023-07-13T01:37:36;17.40;66.10
69595;DHT22;56800;52.142;5.364;2023-07-13T01:40:03;17.30;66.20
69595;DHT22;56800;52.142;5.364;2023-07-13T01:42:31;17.30;66.40
69595;DHT22;56800;52.142;5.364;2023-07-13T01:44:58;17.30;66.40
69595;DHT22;56800;52.142;5.364;2023-07-13T01:47:24;17.30;66.50
69595;DHT22;56800;52.142;5.364;2023-07-13T01:49:53;17.30;66.60
69595;DHT22;56800;52.142;5.364;2023-07-13T01:52:19;17.30;66.80
69595;DHT22;56800;52.142;5.364;2023-07-13T01:54:46;17.20;66.90
69595;DHT22;56800;52.142;5.364;2023-07-13T01:57:13;17.20;66.90
69595;DHT22;56800;52.142;5.364;2023-07-13T01:59:40;17.20;67.00
69595;DHT22;56800;52.142;5.364;2023-07-13T02:02:07;17.20;67.20
69595;DHT22;56800;52.142;5.364;2023-07-13T02:04:34;17.10;67.20
69595;DHT22;56800;52.142;5.364;2023-07-13T02:07:01;17.10;67.30
69595;DHT22;56800;52.142;5.364;2023-07-13T02:09:28;17.10;67.40
69595;DHT22;56800;52.142;5.364;2023-07-13T02:11:54;17.10;67.50
69595;DHT22;56800;52.142;5.364;2023-07-13T02:14:21;17.00;67.50
69595;DHT22;56800;52.142;5.364;2023-07-13T02:16:48;17.00;67.60
69595;DHT22;56800;52.142;5.364;2023-07-13T02:19:15;17.00;67.70
69595;DHT22;56800;52.142;5.364;2023-07-13T02:21:41;16.90;67.70
69595;DHT22;56800;52.142;5.364;2023-07-13T02:24:08;16.90;67.80
69595;DHT22;56800;52.142;5.364;2023-07-13T02:26:35;16.90;67.90
69595;DHT22;56800;52.142;5.364;2023-07-13T02:29:02;16.90;68.00
69595;DHT22;56800;52.142;5.364;2023-07-13T02:31:29;16.90;68.10
69595;DHT22;56800;52.142;5.364;2023-07-13T02:33:56;16.80;68.20
69595;DHT22;56800;52.142;5.364;2023-07-13T02:36:23;16.80;68.30
69595;DHT22;56800;52.142;5.364;2023-07-13T02:38:50;16.70;68.40
69595;DHT22;56800;52.142;5.364;2023-07-13T02:41:17;16.70;68.40
69595;DHT22;56800;52.142;5.364;2023-07-13T02:43:44;16.70;68.60
69595;DHT22;56800;52.142;5.364;2023-07-13T02:46:10;16.70;68.80
69595;DHT22;56800;52.142;5.364;2023-07-13T02:48:39;16.70;68.90
69595;DHT22;56800;52.142;5.364;2023-07-13T02:51:06;16.60;68.90
69595;DHT22;56800;52.142;5.364;2023-07-13T02:53:34;16.60;69.00
69595;DHT22;56800;52.142;5.364;2023-07-13T02:56:03;16.60;69.20
69595;DHT22;56800;52.142;5.364;2023-07-13T02:58:29;16.60;69.40
69595;DHT22;56800;52.142;5.364;2023-07-13T03:00:57;16.50;69.40
69595;DHT22;56800;52.142;5.364;2023-07-13T03:03:24;16.50;69.60
69595;DHT22;56800;52.142;5.364;2023-07-13T03:05:59;16.50;69.80
69595;DHT22;56800;52.142;5.364;2023-07-13T03:08:26;16.50;70.00
69595;DHT22;56800;52.142;5.364;2023-07-13T03:11:22;16.40;69.90
69595;DHT22;56800;52.142;5.364;2023-07-13T03:13:49;16.50;70.20
69595;DHT22;56800;52.142;5.364;2023-07-13T03:16:16;16.40;70.10
69595;DHT22;56800;52.142;5.364;2023-07-13T03:18:46;16.40;70.20
69595;DHT22;56800;52.142;5.364;2023-07-13T03:21:13;16.40;70.40
69595;DHT22;56800;52.142;5.364;2023-07-13T03:23:40;16.40;70.40
69595;DHT22;56800;52.142;5.364;2023-07-13T03:26:18;16.40;70.50
69595;DHT22;56800;52.142;5.364;2023-07-13T03:28:46;16.40;70.60
69595;DHT22;56800;52.142;5.364;2023-07-13T03:31:17;16.40;70.60
69595;DHT22;56800;52.142;5.364;2023-07-13T03:33:45;16.40;70.60
69595;DHT22;56800;52.142;5.364;2023-07-13T03:36:18;16.40;70.70
69595;DHT22;56800;52.142;5.364;2023-07-13T03:38:50;16.40;70.80
69595;DHT22;56800;52.142;5.364;2023-07-13T03:41:18;16.40;70.80
69595;DHT22;56800;52.142;5.364;2023-07-13T03:43:45;16.30;70.80
69595;DHT22;56800;52.142;5.364;2023-07-13T03:46:11;16.30;70.90
69595;DHT22;56800;52.142;5.364;2023-07-13T03:48:39;16.30;71.10
69595;DHT22;56800;52.142;5.364;2023-07-13T03:51:07;16.30;71.10
69595;DHT22;56800;52.142;5.364;2023-07-13T03:53:38;16.30;71.20
69595;DHT22;56800;52.142;5.364;2023-07-13T03:56:05;16.30;71.30
69595;DHT22;56800;52.142;5.364;2023-07-13T03:58:38;16.30;71.30
69595;DHT22;56800;52.142;5.364;2023-07-13T04:01:07;16.20;71.40
69595;DHT22;56800;52.142;5.364;2023-07-13T04:03:35;16.20;71.40
69595;DHT22;56800;52.142;5.364;2023-07-13T04:06:06;16.20;71.50
69595;DHT22;56800;52.142;5.364;2023-07-13T04:08:36;16.20;71.60
69595;DHT22;56800;52.142;5.364;2023-07-13T04:11:04;16.20;71.70
69595;DHT22;56800;52.142;5.364;2023-07-13T04:13:31;16.20;71.70
69595;DHT22;56800;52.142;5.364;2023-07-13T04:15:57;16.20;71.70
69595;DHT22;56800;52.142;5.364;2023-07-13T04:18:24;16.20;71.80
69595;DHT22;56800;52.142;5.364;2023-07-13T04:20:51;16.20;71.90
69595;DHT22;56800;52.142;5.364;2023-07-13T04:23:18;16.20;72.00
69595;DHT22;56800;52.142;5.364;2023-07-13T04:25:48;16.20;72.00
69595;DHT22;56800;52.142;5.364;2023-07-13T04:28:16;16.10;72.20
69595;DHT22;56800;52.142;5.364;2023-07-13T04:30:44;16.10;72.20
69595;DHT22;56800;52.142;5.364;2023-07-13T04:33:11;16.20;72.40
69595;DHT22;56800;52.142;5.364;2023-07-13T04:35:38;16.20;72.50
69595;DHT22;56800;52.142;5.364;2023-07-13T04:38:05;16.20;72.50
69595;DHT22;56800;52.142;5.364;2023-07-13T04:40:32;16.20;72.70
69595;DHT22;56800;52.142;5.364;2023-07-13T04:42:59;16.20;72.60
69595;DHT22;56800;52.142;5.364;2023-07-13T04:45:26;16.20;72.70
69595;DHT22;56800;52.142;5.364;2023-07-13T04:47:53;16.30;72.80
69595;DHT22;56800;52.142;5.364;2023-07-13T04:50:20;16.30;73.00
69595;DHT22;56800;52.142;5.364;2023-07-13T04:52:50;16.30;73.00
69595;DHT22;56800;52.142;5.364;2023-07-13T04:55:18;16.30;73.10
69595;DHT22;56800;52.142;5.364;2023-07-13T04:57:46;16.30;73.20
69595;DHT22;56800;52.142;5.364;2023-07-13T05:00:13;16.40;73.20
69595;DHT22;56800;52.142;5.364;2023-07-13T05:02:44;16.40;73.30
69595;DHT22;56800;52.142;5.364;2023-07-13T05:05:13;16.40;73.30
69595;DHT22;56800;52.142;5.364;2023-07-13T05:07:39;16.40;73.30
69595;DHT22;56800;52.142;5.364;2023-07-13T05:10:07;16.40;73.30
69595;DHT22;56800;52.142;5.364;2023-07-13T05:12:34;16.50;73.40
69595;DHT22;56800;52.142;5.364;2023-07-13T05:15:02;16.50;73.40
69595;DHT22;56800;52.142;5.364;2023-07-13T05:17:29;16.50;73.40
69595;DHT22;56800;52.142;5.364;2023-07-13T05:19:56;16.60;73.40
69595;DHT22;56800;52.142;5.364;2023-07-13T05:22:23;16.60;73.50
69595;DHT22;56800;52.142;5.364;2023-07-13T05:24:50;16.70;73.50
69595;DHT22;56800;52.142;5.364;2023-07-13T05:27:16;16.80;73.50
69595;DHT22;56800;52.142;5.364;2023-07-13T05:29:43;16.80;73.60
69595;DHT22;56800;52.142;5.364;2023-07-13T05:32:11;16.80;73.60
69595;DHT22;56800;52.142;5.364;2023-07-13T05:34:37;16.80;73.60
69595;DHT22;56800;52.142;5.364;2023-07-13T05:37:04;16.90;73.60
69595;DHT22;56800;52.142;5.364;2023-07-13T05:39:31;16.90;73.60
69595;DHT22;56800;52.142;5.364;2023-07-13T05:41:58;16.90;73.60
69595;DHT22;56800;52.142;5.364;2023-07-13T05:44:24;17.00;73.80
69595;DHT22;56800;52.142;5.364;2023-07-13T05:46:51;17.10;73.70
69595;DHT22;56800;52.142;5.364;2023-07-13T05:49:18;17.10;73.70
69595;DHT22;56800;52.142;5.364;2023-07-13T05:51:45;17.10;73.70
69595;DHT22;56800;52.142;5.364;2023-07-13T05:54:12;17.10;73.70
69595;DHT22;56800;52.142;5.364;2023-07-13T05:56:38;17.20;73.80
69595;DHT22;56800;52.142;5.364;2023-07-13T05:59:06;17.20;73.70
69595;DHT22;56800;52.142;5.364;2023-07-13T06:01:33;17.20;73.70
69595;DHT22;56800;52.142;5.364;2023-07-13T06:04:00;17.30;73.80
69595;DHT22;56800;52.142;5.364;2023-07-13T06:06:27;17.40;73.80
69595;DHT22;56800;52.142;5.364;2023-07-13T06:08:54;17.40;73.80
69595;DHT22;56800;52.142;5.364;2023-07-13T06:11:23;17.50;73.70
69595;DHT22;56800;52.142;5.364;2023-07-13T06:13:50;17.50;73.80
69595;DHT22;56800;52.142;5.364;2023-07-13T06:16:17;17.60;73.70
69595;DHT22;56800;52.142;5.364;2023-07-13T06:18:45;17.60;73.50
69595;DHT22;56800;52.142;5.364;2023-07-13T06:21:20;17.70;73.50
69595;DHT22;56800;52.142;5.364;2023-07-13T06:23:49;17.70;73.40
69595;DHT22;56800;52.142;5.364;2023-07-13T06:26:18;17.70;73.30
69595;DHT22;56800;52.142;5.364;2023-07-13T06:28:46;17.70;73.30
69595;DHT22;56800;52.142;5.364;2023-07-13T06:31:14;17.80;73.40
69595;DHT22;56800;52.142;5.364;2023-07-13T06:33:41;17.80;73.40
69595;DHT22;56800;52.142;5.364;2023-07-13T06:36:08;18.00;73.40
69595;DHT22;56800;52.142;5.364;2023-07-13T06:38:36;18.00;73.20
69595;DHT22;56800;52.142;5.364;2023-07-13T06:41:03;18.10;73.20
69595;DHT22;56800;52.142;5.364;2023-07-13T06:43:30;18.10;72.90
69595;DHT22;56800;52.142;5.364;2023-07-13T06:45:58;18.10;72.90
69595;DHT22;56800;52.142;5.364;2023-07-13T06:48:25;18.20;72.90
69595;DHT22;56800;52.142;5.364;2023-07-13T06:50:52;18.20;72.70
69595;DHT22;56800;52.142;5.364;2023-07-13T06:53:20;18.20;73.10
69595;DHT22;56800;52.142;5.364;2023-07-13T06:55:47;18.30;72.60
69595;DHT22;56800;52.142;5.364;2023-07-13T06:58:16;18.30;72.50
69595;DHT22;56800;52.142;5.364;2023-07-13T07:00:43;18.30;72.60
69595;DHT22;56800;52.142;5.364;2023-07-13T07:03:10;18.40;72.70
69595;DHT22;56800;52.142;5.364;2023-07-13T07:05:37;18.50;72.70
69595;DHT22;56800;52.142;5.364;2023-07-13T07:08:04;18.60;72.40
69595;DHT22;56800;52.142;5.364;2023-07-13T07:10:31;18.60;72.10
69595;DHT22;56800;52.142;5.364;2023-07-13T07:12:58;18.60;71.90
69595;DHT22;56800;52.142;5.364;2023-07-13T07:15:26;18.70;71.90
69595;DHT22;56800;52.142;5.364;2023-07-13T07:17:53;18.70;72.00
69595;DHT22;56800;52.142;5.364;2023-07-13T07:20:20;18.70;71.90
69595;DHT22;56800;52.142;5.364;2023-07-13T07:22:47;18.70;72.00
69595;DHT22;56800;52.142;5.364;2023-07-13T07:25:15;18.70;72.10
69595;DHT22;56800;52.142;5.364;2023-07-13T07:27:42;18.70;72.00
69595;DHT22;56800;52.142;5.364;2023-07-13T07:30:12;18.70;72.00
69595;DHT22;56800;52.142;5.364;2023-07-13T07:32:42;18.70;72.10
69595;DHT22;56800;52.142;5.364;2023-07-13T07:35:23;18.60;73.00
69595;DHT22;56800;52.142;5.364;2023-07-13T07:37:50;18.60;72.30
69595;DHT22;56800;52.142;5.364;2023-07-13T07:40:18;18.60;73.30
69595;DHT22;56800;52.142;5.364;2023-07-13T07:42:48;18.60;72.80
69595;DHT22;56800;52.142;5.364;2023-07-13T07:45:14;18.60;72.90
69595;DHT22;56800;52.142;5.364;2023-07-13T07:47:41;18.70;73.00
69595;DHT22;56800;52.142;5.364;2023-07-13T07:50:09;18.70;73.30
69595;DHT22;56800;52.142;5.364;2023-07-13T07:52:36;18.70;73.30
69595;DHT22;56800;52.142;5.364;2023-07-13T07:55:07;18.70;73.40
69595;DHT22;56800;52.142;5.364;2023-07-13T07:57:37;18.80;73.60
69595;DHT22;56800;52.142;5.364;2023-07-13T08:00:07;18.80;73.80
69595;DHT22;56800;52.142;5.364;2023-07-13T08:02:37;18.80;73.80
69595;DHT22;56800;52.142;5.364;2023-07-13T08:05:08;18.90;73.90
69595;DHT22;56800;52.142;5.364;2023-07-13T08:07:39;19.00;74.00
69595;DHT22;56800;52.142;5.364;2023-07-13T08:10:07;19.10;74.00
69595;DHT22;56800;52.142;5.364;2023-07-13T08:12:35;19.20;73.80
69595;DHT22;56800;52.142;5.364;2023-07-13T08:15:06;19.20;73.30
69595;DHT22;56800;52.142;5.364;2023-07-13T08:17:35;19.20;73.00
69595;DHT22;56800;52.142;5.364;2023-07-13T08:20:04;19.10;72.90
69595;DHT22;56800;52.142;5.364;2023-07-13T08:22:31;19.20;72.60
69595;DHT22;56800;52.142;5.364;2023-07-13T08:24:59;19.20;72.20
69595;DHT22;56800;52.142;5.364;2023-07-13T08:27:27;19.20;72.20
69595;DHT22;56800;52.142;5.364;2023-07-13T08:29:55;19.20;72.20
69595;DHT22;56800;52.142;5.364;2023-07-13T08:32:23;19.30;72.30
69595;DHT22;56800;52.142;5.364;2023-07-13T08:34:50;19.40;72.40
69595;DHT22;56800;52.142;5.364;2023-07-13T08:37:18;19.50;72.20
69595;DHT22;56800;52.142;5.364;2023-07-13T08:39:45;19.60;72.00
69595;DHT22;56800;52.142;5.364;2023-07-13T08:45:14;19.90;71.10
69595;DHT22;56800;52.142;5.364;2023-07-13T08:50:58;20.00;70.00
69595;DHT22;56800;52.142;5.364;2023-07-13T08:53:38;20.00;68.90
69595;DHT22;56800;52.142;5.364;2023-07-13T08:56:14;19.80;68.30
69595;DHT22;56800;52.142;5.364;2023-07-13T08:58:44;19.80;68.20
69595;DHT22;56800;52.142;5.364;2023-07-13T09:01:22;19.60;68.30
69595;DHT22;56800;52.142;5.364;2023-07-13T09:03:59;19.60;68.60
69595;DHT22;56800;52.142;5.364;2023-07-13T09:06:49;19.50;68.80
69595;DHT22;56800;52.142;5.364;2023-07-13T09:12:14;19.30;68.80
69595;DHT22;56800;52.142;5.364;2023-07-13T09:14:55;19.20;68.90
69595;DHT22;56800;52.142;5.364;2023-07-13T09:17:33;19.10;69.00
69595;DHT22;56800;52.142;5.364;2023-07-13T09:20:16;19.10;69.90
69595;DHT22;56800;52.142;5.364;2023-07-13T09:22:46;19.00;69.60
69595;DHT22;56800;52.142;5.364;2023-07-13T09:25:35;19.00;70.00
69595;DHT22;56800;52.142;5.364;2023-07-13T09:28:19;19.00;70.50
69595;DHT22;56800;52.142;5.364;2023-07-13T09:30:51;19.10;70.40
69595;DHT22;56800;52.142;5.364;2023-07-13T09:33:21;19.20;70.60
69595;DHT22;56800;52.142;5.364;2023-07-13T09:35:48;19.20;70.90
69595;DHT22;56800;52.142;5.364;2023-07-13T09:38:19;19.30;71.40
69595;DHT22;56800;52.142;5.364;2023-07-13T09:43:36;19.70;71.00
69595;DHT22;56800;52.142;5.364;2023-07-13T09:46:03;19.60;70.20
69595;DHT22;56800;52.142;5.364;2023-07-13T09:48:35;19.60;70.40
69595;DHT22;56800;52.142;5.364;2023-07-13T09:51:15;19.50;70.70
69595;DHT22;56800;52.142;5.364;2023-07-13T09:53:43;19.40;70.60
69595;DHT22;56800;52.142;5.364;2023-07-13T09:56:42;19.20;70.50
69595;DHT22;56800;52.142;5.364;2023-07-13T09:59:19;19.00;71.20
69595;DHT22;56800;52.142;5.364;2023-07-13T10:01:47;18.90;71.20
69595;DHT22;56800;52.142;5.364;2023-07-13T10:04:18;18.80;71.30
69595;DHT22;56800;52.142;5.364;2023-07-13T10:06:46;18.80;72.00
69595;DHT22;56800;52.142;5.364;2023-07-13T10:09:17;18.90;72.20
69595;DHT22;56800;52.142;5.364;2023-07-13T10:11:45;19.10;72.10
69595;DHT22;56800;52.142;5.364;2023-07-13T10:14:21;19.20;72.30
69595;DHT22;56800;52.142;5.364;2023-07-13T10:16:58;19.40;71.90
69595;DHT22;56800;52.142;5.364;2023-07-13T10:19:31;19.50;71.80
69595;DHT22;56800;52.142;5.364;2023-07-13T10:22:02;19.50;71.60
69595;DHT22;56800;52.142;5.364;2023-07-13T10:24:33;19.40;71.50
69595;DHT22;56800;52.142;5.364;2023-07-13T10:27:19;19.40;71.80
69595;DHT22;56800;52.142;5.364;2023-07-13T10:29:51;19.40;72.10
69595;DHT22;56800;52.142;5.364;2023-07-13T10:32:21;19.40;72.60
69595;DHT22;56800;52.142;5.364;2023-07-13T10:34:51;19.60;72.80
69595;DHT22;56800;52.142;5.364;2023-07-13T10:37:31;19.60;72.40
69595;DHT22;56800;52.142;5.364;2023-07-13T10:40:04;19.70;72.50
69595;DHT22;56800;52.142;5.364;2023-07-13T10:42:40;19.70;72.50
69595;DHT22;56800;52.142;5.364;2023-07-13T10:45:35;19.70;72.80
69595;DHT22;56800;52.142;5.364;2023-07-13T10:48:03;19.80;72.90
69595;DHT22;56800;52.142;5.364;2023-07-13T10:50:32;19.90;73.10
69595;DHT22;56800;52.142;5.364;2023-07-13T10:53:03;20.00;72.50
69595;DHT22;56800;52.142;5.364;2023-07-13T10:55:36;20.20;71.90
69595;DHT22;56800;52.142;5.364;2023-07-13T10:58:22;20.30;71.80
69595;DHT22;56800;52.142;5.364;2023-07-13T11:03:28;20.70;71.80
69595;DHT22;56800;52.142;5.364;2023-07-13T11:08:52;21.00;70.90
69595;DHT22;56800;52.142;5.364;2023-07-13T11:11:33;21.10;70.10
69595;DHT22;56800;52.142;5.364;2023-07-13T11:16:54;21.30;68.80
69595;DHT22;56800;52.142;5.364;2023-07-13T11:19:27;21.50;68.60
69595;DHT22;56800;52.142;5.364;2023-07-13T11:24:59;21.70;67.90
69595;DHT22;56800;52.142;5.364;2023-07-13T11:27:42;21.90;66.80
69595;DHT22;56800;52.142;5.364;2023-07-13T11:35:45;21.90;65.70
69595;DHT22;56800;52.142;5.364;2023-07-13T11:38:19;21.70;65.60
69595;DHT22;56800;52.142;5.364;2023-07-13T11:40:48;21.40;66.10
69595;DHT22;56800;52.142;5.364;2023-07-13T11:43:22;21.20;67.40
69595;DHT22;56800;52.142;5.364;2023-07-13T11:45:52;21.20;68.00
69595;DHT22;56800;52.142;5.364;2023-07-13T11:48:24;21.20;68.00
69595;DHT22;56800;52.142;5.364;2023-07-13T11:51:03;21.10;67.90
69595;DHT22;56800;52.142;5.364;2023-07-13T11:53:39;21.10;68.10
69595;DHT22;56800;52.142;5.364;2023-07-13T11:56:07;21.00;68.10
69595;DHT22;56800;52.142;5.364;2023-07-13T11:58:34;20.90;68.00
69595;DHT22;56800;52.142;5.364;2023-07-13T12:01:02;20.80;67.70
69595;DHT22;56800;52.142;5.364;2023-07-13T12:03:32;20.60;68.00
69595;DHT22;56800;52.142;5.364;2023-07-13T12:06:04;20.50;68.50
69595;DHT22;56800;52.142;5.364;2023-07-13T12:08:38;20.40;68.90
69595;DHT22;56800;52.142;5.364;2023-07-13T12:11:15;20.30;69.30
69595;DHT22;56800;52.142;5.364;2023-07-13T12:13:44;20.40;70.00
69595;DHT22;56800;52.142;5.364;2023-07-13T12:16:17;20.40;70.00
69595;DHT22;56800;52.142;5.364;2023-07-13T12:18:49;20.40;70.10
69595;DHT22;56800;52.142;5.364;2023-07-13T12:21:19;20.40;70.00
69595;DHT22;56800;52.142;5.364;2023-07-13T12:23:49;20.40;70.00
69595;DHT22;56800;52.142;5.364;2023-07-13T12:26:18;20.40;70.20
69595;DHT22;56800;52.142;5.364;2023-07-13T12:28:48;20.40;70.70
69595;DHT22;56800;52.142;5.364;2023-07-13T12:36:31;20.50;70.40
69595;DHT22;56800;52.142;5.364;2023-07-13T12:39:04;20.60;70.80
69595;DHT22;56800;52.142;5.364;2023-07-13T12:41:32;20.80;70.50
69595;DHT22;56800;52.142;5.364;2023-07-13T12:43:59;20.90;69.80
69595;DHT22;56800;52.142;5.364;2023-07-13T12:46:27;21.00;69.10
69595;DHT22;56800;52.142;5.364;2023-07-13T12:48:57;20.90;68.00
69595;DHT22;56800;52.142;5.364;2023-07-13T12:51:44;20.90;68.00
69595;DHT22;56800;52.142;5.364;2023-07-13T12:54:17;20.90;68.30
69595;DHT22;56800;52.142;5.364;2023-07-13T12:56:44;21.00;68.10
69595;DHT22;56800;52.142;5.364;2023-07-13T12:59:18;21.10;67.60
69595;DHT22;56800;52.142;5.364;2023-07-13T13:01:46;21.10;66.30
69595;DHT22;56800;52.142;5.364;2023-07-13T13:04:14;21.00;66.40
69595;DHT22;56800;52.142;5.364;2023-07-13T13:06:41;21.00;66.40
69595;DHT22;56800;52.142;5.364;2023-07-13T13:09:14;21.10;66.80
69595;DHT22;56800;52.142;5.364;2023-07-13T13:11:42;21.20;66.20
69595;DHT22;56800;52.142;5.364;2023-07-13T13:14:09;21.30;65.70
69595;DHT22;56800;52.142;5.364;2023-07-13T13:16:46;21.50;65.80
69595;DHT22;56800;52.142;5.364;2023-07-13T13:19:19;21.70;64.50
69595;DHT22;56800;52.142;5.364;2023-07-13T13:21:48;21.80;63.70
69595;DHT22;56800;52.142;5.364;2023-07-13T13:24:23;21.70;62.80
69595;DHT22;56800;52.142;5.364;2023-07-13T13:26:51;21.60;62.80
69595;DHT22;56800;52.142;5.364;2023-07-13T13:29:21;21.60;63.00
69595;DHT22;56800;52.142;5.364;2023-07-13T13:31:51;21.60;63.40
69595;DHT22;56800;52.142;5.364;2023-07-13T13:34:19;21.90;63.80
69595;DHT22;56800;52.142;5.364;2023-07-13T13:36:47;22.20;64.30
69595;DHT22;56800;52.142;5.364;2023-07-13T13:39:24;22.60;63.80
69595;DHT22;56800;52.142;5.364;2023-07-13T13:41:52;22.80;62.60
69595;DHT22;56800;52.142;5.364;2023-07-13T13:44:20;22.70;61.30
69595;DHT22;56800;52.142;5.364;2023-07-13T13:46:49;22.70;61.10
69595;DHT22;56800;52.142;5.364;2023-07-13T13:49:25;22.90;60.90
69595;DHT22;56800;52.142;5.364;2023-07-13T13:51:53;23.00;60.00
69595;DHT22;56800;52.142;5.364;2023-07-13T13:54:21;22.90;59.50
69595;DHT22;56800;52.142;5.364;2023-07-13T13:56:50;22.90;60.10
69595;DHT22;56800;52.142;5.364;2023-07-13T13:59:18;23.10;60.40
69595;DHT22;56800;52.142;5.364;2023-07-13T14:01:46;23.30;60.00
69595;DHT22;56800;52.142;5.364;2023-07-13T14:04:19;23.50;59.20
69595;DHT22;56800;52.142;5.364;2023-07-13T14:06:47;23.60;58.60
69595;DHT22;56800;52.142;5.364;2023-07-13T14:09:17;23.50;57.70
69595;DHT22;56800;52.142;5.364;2023-07-13T14:11:45;23.40;56.80
69595;DHT22;56800;52.142;5.364;2023-07-13T14:14:20;23.20;57.00
69595;DHT22;56800;52.142;5.364;2023-07-13T14:16:49;23.10;57.20
69595;DHT22;56800;52.142;5.364;2023-07-13T14:19:21;23.20;58.10
69595;DHT22;56800;52.142;5.364;2023-07-13T14:21:48;23.40;58.60
69595;DHT22;56800;52.142;5.364;2023-07-13T14:24:16;23.70;58.60
69595;DHT22;56800;52.142;5.364;2023-07-13T14:26:43;23.90;57.50
69595;DHT22;56800;52.142;5.364;2023-07-13T14:29:16;24.00;55.90
69595;DHT22;56800;52.142;5.364;2023-07-13T14:31:48;24.00;55.10
69595;DHT22;56800;52.142;5.364;2023-07-13T14:34:14;23.90;55.20
69595;DHT22;56800;52.142;5.364;2023-07-13T14:36:47;23.80;55.20
69595;DHT22;56800;52.142;5.364;2023-07-13T14:39:21;23.80;55.10
69595;DHT22;56800;52.142;5.364;2023-07-13T14:41:53;23.70;54.80
69595;DHT22;56800;52.142;5.364;2023-07-13T14:44:26;23.60;54.70
69595;DHT22;56800;52.142;5.364;2023-07-13T14:46:57;23.40;54.50
69595;DHT22;56800;52.142;5.364;2023-07-13T14:52:22;23.10;55.10
69595;DHT22;56800;52.142;5.364;2023-07-13T14:54:53;23.10;56.00
69595;DHT22;56800;52.142;5.364;2023-07-13T14:57:20;23.20;55.80
69595;DHT22;56800;52.142;5.364;2023-07-13T14:59:48;23.20;56.20
69595;DHT22;56800;52.142;5.364;2023-07-13T15:02:28;23.40;55.90
69595;DHT22;56800;52.142;5.364;2023-07-13T15:04:56;23.40;55.20
69595;DHT22;56800;52.142;5.364;2023-07-13T15:07:24;23.30;55.10
69595;DHT22;56800;52.142;5.364;2023-07-13T15:09:51;23.10;55.10
69595;DHT22;56800;52.142;5.364;2023-07-13T15:12:18;23.10;55.60
69595;DHT22;56800;52.142;5.364;2023-07-13T15:14:46;23.00;55.90
69595;DHT22;56800;52.142;5.364;2023-07-13T15:17:28;22.90;56.00
69595;DHT22;56800;52.142;5.364;2023-07-13T15:19:57;22.80;56.80
69595;DHT22;56800;52.142;5.364;2023-07-13T15:22:23;22.90;57.30
69595;DHT22;56800;52.142;5.364;2023-07-13T15:24:50;23.00;56.60
69595;DHT22;56800;52.142;5.364;2023-07-13T15:27:18;23.10;55.90
69595;DHT22;56800;52.142;5.364;2023-07-13T15:29:44;23.10;55.90
69595;DHT22;56800;52.142;5.364;2023-07-13T15:32:15;23.10;55.50
69595;DHT22;56800;52.142;5.364;2023-07-13T15:34:42;23.10;55.50
69595;DHT22;56800;52.142;5.364;2023-07-13T15:37:14;23.00;55.60
69595;DHT22;56800;52.142;5.364;2023-07-13T15:39:42;23.10;55.90
69595;DHT22;56800;52.142;5.364;2023-07-13T15:42:19;23.20;56.10
69595;DHT22;56800;52.142;5.364;2023-07-13T15:44:47;23.20;55.10
69595;DHT22;56800;52.142;5.364;2023-07-13T15:47:15;23.30;55.10
69595;DHT22;56800;52.142;5.364;2023-07-13T15:49:42;23.30;54.60
69595;DHT22;56800;52.142;5.364;2023-07-13T15:52:21;23.40;54.10
69595;DHT22;56800;52.142;5.364;2023-07-13T15:54:49;23.40;53.50
69595;DHT22;56800;52.142;5.364;2023-07-13T15:57:17;23.50;53.90
69595;DHT22;56800;52.142;5.364;2023-07-13T15:59:44;23.60;53.90
69595;DHT22;56800;52.142;5.364;2023-07-13T16:02:18;23.70;53.60
69595;DHT22;56800;52.142;5.364;2023-07-13T16:04:46;23.70;53.90
69595;DHT22;56800;52.142;5.364;2023-07-13T16:07:15;23.70;53.00
69595;DHT22;56800;52.142;5.364;2023-07-13T16:09:44;23.80;52.70
69595;DHT22;56800;52.142;5.364;2023-07-13T16:12:15;23.80;52.80
69595;DHT22;56800;52.142;5.364;2023-07-13T16:14:42;23.70;53.00
69595;DHT22;56800;52.142;5.364;2023-07-13T16:17:10;23.80;53.60
69595;DHT22;56800;52.142;5.364;2023-07-13T16:19:37;23.80;53.70
69595;DHT22;56800;52.142;5.364;2023-07-13T16:22:05;23.90;53.30
69595;DHT22;56800;52.142;5.364;2023-07-13T16:24:32;24.00;52.40
69595;DHT22;56800;52.142;5.364;2023-07-13T16:26:59;24.00;52.40